sensor_id;sensor_type;location;lat;lon;timestamp;pressure;altitude;pressure_sealevel;temperature;humidity
6615;BME280;3343;42.896;23.912;2022-08-01T00:01:51;96405.47;;;23.55;73.46
6615;BME280;3343;42.896;23.912;2022-08-01T00:04:18;96389.56;;;23.69;72.75
6615;BME280;3343;42.896;23.912;2022-08-01T00:06:44;96390.38;;;23.69;72.76
6615;BME280;3343;42.896;23.912;2022-08-01T00:09:13;96391.50;;;23.33;74.11
6615;BME280;3343;42.896;23.912;2022-08-01T00:11:40;96384.22;;;23.64;72.48
6615;BME280;3343;42.896;23.912;2022-08-01T00:14:07;96388.81;;;23.58;72.55
6615;BME280;3343;42.896;23.912;2022-08-01T00:16:35;96390.63;;;23.73;71.57
6615;BME280;3343;42.896;23.912;2022-08-01T00:19:03;96386.66;;;23.35;72.88
6615;BME280;3343;42.896;23.912;2022-08-01T00:21:30;96378.31;;;22.35;77.98
6615;BME280;3343;42.896;23.912;2022-08-01T00:23:56;96382.41;;;22.73;75.93
6615;BME280;3343;42.896;23.912;2022-08-01T00:26:25;96384.50;;;23.37;73.73
6615;BME280;3343;42.896;23.912;2022-08-01T00:28:52;96386.66;;;23.35;73.84
6615;BME280;3343;42.896;23.912;2022-08-01T00:31:19;96372.22;;;23.00;74.48
6615;BME280;3343;42.896;23.912;2022-08-01T00:33:46;96373.28;;;23.04;74.54
6615;BME280;3343;42.896;23.912;2022-08-01T00:36:12;96367.06;;;23.29;73.34
6615;BME280;3343;42.896;23.912;2022-08-01T00:38:39;96366.50;;;23.37;72.80
6615;BME280;3343;42.896;23.912;2022-08-01T00:41:06;96358.72;;;23.36;72.55
6615;BME280;3343;42.896;23.912;2022-08-01T00:43:34;96361.69;;;23.29;73.50
6615;BME280;3343;42.896;23.912;2022-08-01T00:46:01;96362.22;;;23.41;72.38
6615;BME280;3343;42.896;23.912;2022-08-01T00:48:28;96353.38;;;23.41;72.42
6615;BME280;3343;42.896;23.912;2022-08-01T00:50:55;96347.97;;;23.56;71.61
6615;BME280;3343;42.896;23.912;2022-08-01T00:53:22;96353.06;;;23.63;70.58
6615;BME280;3343;42.896;23.912;2022-08-01T00:55:49;96350.88;;;22.02;77.98
6615;BME280;3343;42.896;23.912;2022-08-01T00:58:16;96342.66;;;21.51;81.14
6615;BME280;3343;42.896;23.912;2022-08-01T01:00:45;96335.13;;;21.48;82.72
6615;BME280;3343;42.896;23.912;2022-08-01T01:03:12;96333.00;;;22.23;78.59
6615;BME280;3343;42.896;23.912;2022-08-01T01:05:44;96333.31;;;22.82;75.75
6615;BME280;3343;42.896;23.912;2022-08-01T01:08:19;96327.94;;;22.72;75.30
6615;BME280;3343;42.896;23.912;2022-08-01T01:10:54;96332.78;;;22.70;75.45
6615;BME280;3343;42.896;23.912;2022-08-01T01:13:28;96333.03;;;22.99;74.11
6615;BME280;3343;42.896;23.912;2022-08-01T01:16:04;96320.38;;;23.15;73.17
6615;BME280;3343;42.896;23.912;2022-08-01T01:18:35;96317.38;;;23.37;72.06
6615;BME280;3343;42.896;23.912;2022-08-01T01:23:50;96309.81;;;23.54;70.52
6615;BME280;3343;42.896;23.912;2022-08-01T01:26:29;96303.63;;;23.64;69.79
6615;BME280;3343;42.896;23.912;2022-08-01T01:29:06;96302.50;;;23.70;69.17
6615;BME280;3343;42.896;23.912;2022-08-01T01:31:40;96300.50;;;23.21;70.99
6615;BME280;3343;42.896;23.912;2022-08-01T01:34:09;96306.75;;;22.86;72.80
6615;BME280;3343;42.896;23.912;2022-08-01T01:36:39;96289.56;;;22.92;72.19
6615;BME280;3343;42.896;23.912;2022-08-01T01:39:06;96302.69;;;23.04;71.52
6615;BME280;3343;42.896;23.912;2022-08-01T01:41:36;96298.69;;;22.96;72.07
6615;BME280;3343;42.896;23.912;2022-08-01T01:44:06;96305.13;;;22.75;72.84
6615;BME280;3343;42.896;23.912;2022-08-01T01:46:35;96296.81;;;22.41;74.91
6615;BME280;3343;42.896;23.912;2022-08-01T01:49:03;96287.66;;;20.81;82.63
6615;BME280;3343;42.896;23.912;2022-08-01T01:51:31;96290.91;;;20.88;83.76
6615;BME280;3343;42.896;23.912;2022-08-01T01:53:59;96295.41;;;21.25;81.34
6615;BME280;3343;42.896;23.912;2022-08-01T01:56:28;96294.91;;;22.11;77.04
6615;BME280;3343;42.896;23.912;2022-08-01T01:59:00;96293.59;;;22.69;73.61
6615;BME280;3343;42.896;23.912;2022-08-01T02:01:31;96293.00;;;23.18;70.86
6615;BME280;3343;42.896;23.912;2022-08-01T02:03:59;96292.25;;;22.97;71.01
6615;BME280;3343;42.896;23.912;2022-08-01T02:06:28;96295.47;;;22.89;72.35
6615;BME280;3343;42.896;23.912;2022-08-01T02:08:57;96297.63;;;22.77;73.06
6615;BME280;3343;42.896;23.912;2022-08-01T02:11:24;96284.22;;;22.41;73.23
6615;BME280;3343;42.896;23.912;2022-08-01T02:13:53;96281.00;;;22.90;71.39
6615;BME280;3343;42.896;23.912;2022-08-01T02:16:25;96279.31;;;23.14;69.47
6615;BME280;3343;42.896;23.912;2022-08-01T02:18:54;96254.47;;;22.22;71.89
6615;BME280;3343;42.896;23.912;2022-08-01T02:21:25;96282.88;;;22.34;72.21
6615;BME280;3343;42.896;23.912;2022-08-01T02:23:54;96282.88;;;22.84;70.64
6615;BME280;3343;42.896;23.912;2022-08-01T02:26:22;96274.81;;;22.39;70.60
6615;BME280;3343;42.896;23.912;2022-08-01T02:28:55;96275.63;;;21.31;74.41
6615;BME280;3343;42.896;23.912;2022-08-01T02:31:24;96273.06;;;21.56;73.20
6615;BME280;3343;42.896;23.912;2022-08-01T02:33:58;96273.16;;;22.02;70.35
6615;BME280;3343;42.896;23.912;2022-08-01T02:36:28;96276.16;;;22.41;69.58
6615;BME280;3343;42.896;23.912;2022-08-01T02:38:59;96277.78;;;22.58;67.89
6615;BME280;3343;42.896;23.912;2022-08-01T02:41:27;96275.38;;;22.66;67.51
6615;BME280;3343;42.896;23.912;2022-08-01T02:43:58;96271.50;;;21.08;73.06
6615;BME280;3343;42.896;23.912;2022-08-01T02:46:29;96256.47;;;21.02;74.20
6615;BME280;3343;42.896;23.912;2022-08-01T02:49:01;96259.69;;;21.04;74.35
6615;BME280;3343;42.896;23.912;2022-08-01T02:51:30;96260.56;;;21.92;70.49
6615;BME280;3343;42.896;23.912;2022-08-01T02:53:58;96274.81;;;22.13;69.14
6615;BME280;3343;42.896;23.912;2022-08-01T02:56:27;96265.44;;;22.21;68.64
6615;BME280;3343;42.896;23.912;2022-08-01T02:59:02;96263.03;;;22.04;69.20
6615;BME280;3343;42.896;23.912;2022-08-01T03:01:31;96261.97;;;22.20;69.12
6615;BME280;3343;42.896;23.912;2022-08-01T03:04:00;96265.13;;;21.97;69.39
6615;BME280;3343;42.896;23.912;2022-08-01T03:06:28;96264.63;;;22.36;67.14
6615;BME280;3343;42.896;23.912;2022-08-01T03:08:57;96256.59;;;22.31;67.36
6615;BME280;3343;42.896;23.912;2022-08-01T03:11:26;96248.56;;;22.41;67.02
6615;BME280;3343;42.896;23.912;2022-08-01T03:13:55;96260.56;;;21.92;69.36
6615;BME280;3343;42.896;23.912;2022-08-01T03:16:24;96259.31;;;21.33;71.76
6615;BME280;3343;42.896;23.912;2022-08-01T03:18:53;96263.75;;;20.32;76.28
6615;BME280;3343;42.896;23.912;2022-08-01T03:21:23;96265.81;;;20.25;77.96
6615;BME280;3343;42.896;23.912;2022-08-01T03:23:53;96258.16;;;21.18;74.51
6615;BME280;3343;42.896;23.912;2022-08-01T03:26:26;96267.53;;;21.83;70.79
6615;BME280;3343;42.896;23.912;2022-08-01T03:28:56;96259.75;;;21.92;69.80
6615;BME280;3343;42.896;23.912;2022-08-01T03:31:24;96268.66;;;22.08;68.42
6615;BME280;3343;42.896;23.912;2022-08-01T03:33:52;96275.09;;;22.32;67.28
6615;BME280;3343;42.896;23.912;2022-08-01T03:36:21;96265.44;;;22.41;67.03
6615;BME280;3343;42.896;23.912;2022-08-01T03:38:52;96264.28;;;21.71;69.37
6615;BME280;3343;42.896;23.912;2022-08-01T03:41:24;96267.16;;;21.59;70.26
6615;BME280;3343;42.896;23.912;2022-08-01T03:43:57;96271.34;;;22.13;68.57
6615;BME280;3343;42.896;23.912;2022-08-01T03:46:30;96274.56;;;22.35;67.89
6615;BME280;3343;42.896;23.912;2022-08-01T03:49:03;96277.44;;;21.93;69.12
6615;BME280;3343;42.896;23.912;2022-08-01T03:51:32;96268.94;;;22.27;68.72
6615;BME280;3343;42.896;23.912;2022-08-01T03:54:01;96281.25;;;22.22;67.85
6615;BME280;3343;42.896;23.912;2022-08-01T03:56:29;96281.81;;;22.55;67.90
6615;BME280;3343;42.896;23.912;2022-08-01T03:58:58;96274.28;;;22.93;64.35
6615;BME280;3343;42.896;23.912;2022-08-01T04:01:26;96265.69;;;22.75;65.27
6615;BME280;3343;42.896;23.912;2022-08-01T04:03:54;96260.97;;;21.44;71.07
6615;BME280;3343;42.896;23.912;2022-08-01T04:06:21;96271.59;;;22.27;67.20
6615;BME280;3343;42.896;23.912;2022-08-01T04:08:49;96270.19;;;23.10;63.47
6615;BME280;3343;42.896;23.912;2022-08-01T04:11:24;96279.34;;;23.09;64.05
6615;BME280;3343;42.896;23.912;2022-08-01T04:13:51;96276.25;;;23.51;62.59
6615;BME280;3343;42.896;23.912;2022-08-01T04:16:19;96264.53;;;24.26;59.75
6615;BME280;3343;42.896;23.912;2022-08-01T04:18:46;96267.28;;;25.13;55.64
6615;BME280;3343;42.896;23.912;2022-08-01T04:21:13;96266.59;;;25.50;53.65
6615;BME280;3343;42.896;23.912;2022-08-01T04:23:41;96271.53;;;25.85;53.64
6615;BME280;3343;42.896;23.912;2022-08-01T04:26:10;96261.34;;;26.01;51.97
6615;BME280;3343;42.896;23.912;2022-08-01T04:28:41;96271.31;;;26.00;52.42
6615;BME280;3343;42.896;23.912;2022-08-01T04:31:10;96279.03;;;25.46;55.36
6615;BME280;3343;42.896;23.912;2022-08-01T04:33:40;96263.09;;;25.01;56.72
6615;BME280;3343;42.896;23.912;2022-08-01T04:36:09;96275.81;;;25.44;55.18
6615;BME280;3343;42.896;23.912;2022-08-01T04:38:38;96280.22;;;26.20;53.55
6615;BME280;3343;42.896;23.912;2022-08-01T04:41:08;96279.69;;;26.55;50.40
6615;BME280;3343;42.896;23.912;2022-08-01T04:43:36;96271.53;;;27.20;49.31
6615;BME280;3343;42.896;23.912;2022-08-01T04:46:05;96267.63;;;27.54;47.98
6615;BME280;3343;42.896;23.912;2022-08-01T04:48:32;96267.13;;;27.11;48.91
6615;BME280;3343;42.896;23.912;2022-08-01T04:51:02;96273.53;;;27.56;47.81
6615;BME280;3343;42.896;23.912;2022-08-01T04:53:29;96279.16;;;27.32;46.70
6615;BME280;3343;42.896;23.912;2022-08-01T04:55:57;96275.09;;;26.56;48.42
6615;BME280;3343;42.896;23.912;2022-08-01T04:58:24;96279.56;;;26.28;48.34
6615;BME280;3343;42.896;23.912;2022-08-01T05:00:51;96271.69;;;26.96;47.37
6615;BME280;3343;42.896;23.912;2022-08-01T05:03:19;96268.94;;;27.84;45.64
6615;BME280;3343;42.896;23.912;2022-08-01T05:05:46;96258.97;;;28.74;43.99
6615;BME280;3343;42.896;23.912;2022-08-01T05:08:13;96267.59;;;29.07;42.00
6615;BME280;3343;42.896;23.912;2022-08-01T05:10:41;96259.53;;;29.15;40.34
6615;BME280;3343;42.896;23.912;2022-08-01T05:13:08;96264.91;;;29.46;41.90
6615;BME280;3343;42.896;23.912;2022-08-01T05:15:36;96262.94;;;29.38;40.18
6615;BME280;3343;42.896;23.912;2022-08-01T05:18:03;96273.75;;;28.90;40.44
6615;BME280;3343;42.896;23.912;2022-08-01T05:20:31;96272.50;;;28.51;40.99
6615;BME280;3343;42.896;23.912;2022-08-01T05:22:58;96264.44;;;28.82;40.84
6615;BME280;3343;42.896;23.912;2022-08-01T05:25:25;96263.84;;;29.25;39.27
6615;BME280;3343;42.896;23.912;2022-08-01T05:27:53;96277.63;;;29.86;40.99
6615;BME280;3343;42.896;23.912;2022-08-01T05:30:20;96277.28;;;29.78;36.84
6615;BME280;3343;42.896;23.912;2022-08-01T05:32:47;96260.25;;;30.04;38.76
6615;BME280;3343;42.896;23.912;2022-08-01T05:35:14;96271.47;;;30.63;37.48
6615;BME280;3343;42.896;23.912;2022-08-01T05:37:42;96276.03;;;30.88;37.31
6615;BME280;3343;42.896;23.912;2022-08-01T05:40:10;96273.63;;;31.42;33.10
6615;BME280;3343;42.896;23.912;2022-08-01T05:42:37;96273.53;;;31.89;33.33
6615;BME280;3343;42.896;23.912;2022-08-01T05:45:04;96277.59;;;32.04;32.14
6615;BME280;3343;42.896;23.912;2022-08-01T05:47:31;96283.63;;;31.29;32.27
6615;BME280;3343;42.896;23.912;2022-08-01T05:49:58;96288.19;;;31.76;32.22
6615;BME280;3343;42.896;23.912;2022-08-01T05:52:25;96280.78;;;32.35;31.98
6615;BME280;3343;42.896;23.912;2022-08-01T05:54:53;96282.59;;;32.64;30.92
6615;BME280;3343;42.896;23.912;2022-08-01T05:57:20;96283.88;;;32.46;32.58
6615;BME280;3343;42.896;23.912;2022-08-01T05:59:47;96285.31;;;32.64;31.57
6615;BME280;3343;42.896;23.912;2022-08-01T06:02:14;96281.38;;;31.61;31.80
6615;BME280;3343;42.896;23.912;2022-08-01T06:04:41;96274.06;;;31.53;33.09
6615;BME280;3343;42.896;23.912;2022-08-01T06:07:07;96283.78;;;31.24;32.13
6615;BME280;3343;42.896;23.912;2022-08-01T06:09:34;96292.78;;;31.54;32.09
6615;BME280;3343;42.896;23.912;2022-08-01T06:12:03;96285.19;;;32.19;32.17
6615;BME280;3343;42.896;23.912;2022-08-01T06:14:30;96278.28;;;32.21;32.32
6615;BME280;3343;42.896;23.912;2022-08-01T06:16:57;96270.50;;;32.53;32.10
6615;BME280;3343;42.896;23.912;2022-08-01T06:19:24;96275.53;;;32.84;32.68
6615;BME280;3343;42.896;23.912;2022-08-01T06:21:51;96277.72;;;32.37;30.63
6615;BME280;3343;42.896;23.912;2022-08-01T06:24:18;96276.88;;;32.78;30.80
6615;BME280;3343;42.896;23.912;2022-08-01T06:26:45;96278.38;;;32.67;30.75
6615;BME280;3343;42.896;23.912;2022-08-01T06:29:13;96277.50;;;32.21;31.77
6615;BME280;3343;42.896;23.912;2022-08-01T06:31:40;96277.09;;;32.52;30.54
6615;BME280;3343;42.896;23.912;2022-08-01T06:34:07;96281.16;;;33.00;30.05
6615;BME280;3343;42.896;23.912;2022-08-01T06:36:34;96272.69;;;33.50;30.18
6615;BME280;3343;42.896;23.912;2022-08-01T06:39:01;96278.94;;;33.50;30.74
6615;BME280;3343;42.896;23.912;2022-08-01T06:41:28;96285.34;;;32.76;29.55
6615;BME280;3343;42.896;23.912;2022-08-01T06:43:54;96281.03;;;31.92;31.31
6615;BME280;3343;42.896;23.912;2022-08-01T06:46:23;96279.25;;;32.25;31.34
6615;BME280;3343;42.896;23.912;2022-08-01T06:48:50;96267.56;;;32.79;31.22
6615;BME280;3343;42.896;23.912;2022-08-01T06:51:16;96270.28;;;33.24;30.62
6615;BME280;3343;42.896;23.912;2022-08-01T06:53:45;96274.00;;;33.19;29.98
6615;BME280;3343;42.896;23.912;2022-08-01T06:56:12;96277.13;;;33.30;31.04
6615;BME280;3343;42.896;23.912;2022-08-01T06:58:39;96277.44;;;33.29;30.86
6615;BME280;3343;42.896;23.912;2022-08-01T07:01:06;96273.91;;;33.16;30.97
6615;BME280;3343;42.896;23.912;2022-08-01T07:03:35;96273.75;;;32.67;31.38
6615;BME280;3343;42.896;23.912;2022-08-01T07:06:02;96275.69;;;33.00;31.19
6615;BME280;3343;42.896;23.912;2022-08-01T07:08:29;96273.25;;;33.43;30.03
6615;BME280;3343;42.896;23.912;2022-08-01T07:10:56;96275.19;;;33.67;30.09
6615;BME280;3343;42.896;23.912;2022-08-01T07:13:25;96270.66;;;33.47;30.57
6615;BME280;3343;42.896;23.912;2022-08-01T07:15:52;96275.75;;;33.61;30.00
6615;BME280;3343;42.896;23.912;2022-08-01T07:18:19;96254.91;;;33.80;30.76
6615;BME280;3343;42.896;23.912;2022-08-01T07:20:47;96271.69;;;33.91;30.53
6615;BME280;3343;42.896;23.912;2022-08-01T07:23:15;96272.94;;;33.94;30.37
6615;BME280;3343;42.896;23.912;2022-08-01T07:25:42;96271.19;;;33.77;29.50
6615;BME280;3343;42.896;23.912;2022-08-01T07:28:09;96274.97;;;33.48;30.93
6615;BME280;3343;42.896;23.912;2022-08-01T07:30:36;96284.69;;;33.12;30.24
6615;BME280;3343;42.896;23.912;2022-08-01T07:33:03;96282.09;;;33.28;30.85
6615;BME280;3343;42.896;23.912;2022-08-01T07:35:29;96283.22;;;33.27;29.80
6615;BME280;3343;42.896;23.912;2022-08-01T07:37:58;96286.44;;;33.53;28.88
6615;BME280;3343;42.896;23.912;2022-08-01T07:40:24;96280.03;;;33.25;28.15
6615;BME280;3343;42.896;23.912;2022-08-01T07:42:51;96286.41;;;33.29;29.02
6615;BME280;3343;42.896;23.912;2022-08-01T07:45:18;96286.09;;;32.85;28.51
6615;BME280;3343;42.896;23.912;2022-08-01T07:47:46;96287.56;;;32.62;29.43
6615;BME280;3343;42.896;23.912;2022-08-01T07:50:15;96281.94;;;33.00;29.43
6615;BME280;3343;42.896;23.912;2022-08-01T07:52:42;96285.31;;;32.64;28.77
6615;BME280;3343;42.896;23.912;2022-08-01T07:55:11;96289.59;;;32.86;28.44
6615;BME280;3343;42.896;23.912;2022-08-01T07:57:38;96285.94;;;32.49;28.91
6615;BME280;3343;42.896;23.912;2022-08-01T08:00:06;96289.81;;;33.26;29.37
6615;BME280;3343;42.896;23.912;2022-08-01T08:02:34;96294.19;;;33.39;28.81
6615;BME280;3343;42.896;23.912;2022-08-01T08:05:02;96299.22;;;33.04;28.21
6615;BME280;3343;42.896;23.912;2022-08-01T08:07:29;96293.69;;;33.25;28.71
6615;BME280;3343;42.896;23.912;2022-08-01T08:09:56;96294.47;;;32.80;29.55
6615;BME280;3343;42.896;23.912;2022-08-01T08:12:24;96295.06;;;32.86;28.31
6615;BME280;3343;42.896;23.912;2022-08-01T08:14:51;96288.72;;;33.51;28.25
6615;BME280;3343;42.896;23.912;2022-08-01T08:17:18;96292.13;;;33.48;27.56
6615;BME280;3343;42.896;23.912;2022-08-01T08:19:45;96287.88;;;34.36;27.40
6615;BME280;3343;42.896;23.912;2022-08-01T08:22:12;96288.47;;;34.58;26.55
6615;BME280;3343;42.896;23.912;2022-08-01T08:24:39;96298.19;;;34.83;26.22
6615;BME280;3343;42.896;23.912;2022-08-01T08:27:05;96291.03;;;33.86;26.46
6615;BME280;3343;42.896;23.912;2022-08-01T08:29:34;96283.88;;;34.34;27.08
6615;BME280;3343;42.896;23.912;2022-08-01T08:32:02;96287.91;;;35.08;27.94
6615;BME280;3343;42.896;23.912;2022-08-01T08:34:29;96293.44;;;34.96;25.59
6615;BME280;3343;42.896;23.912;2022-08-01T08:36:56;96286.19;;;34.88;26.66
6615;BME280;3343;42.896;23.912;2022-08-01T08:39:25;96284.19;;;34.72;24.81
6615;BME280;3343;42.896;23.912;2022-08-01T08:41:51;96288.59;;;34.49;25.45
6615;BME280;3343;42.896;23.912;2022-08-01T08:44:19;96293.50;;;35.43;25.88
6615;BME280;3343;42.896;23.912;2022-08-01T08:46:50;96287.31;;;35.78;23.60
6615;BME280;3343;42.896;23.912;2022-08-01T08:49:19;96292.78;;;36.28;23.88
6615;BME280;3343;42.896;23.912;2022-08-01T08:51:48;96286.66;;;36.74;24.02
6615;BME280;3343;42.896;23.912;2022-08-01T08:54:17;96287.72;;;36.30;23.65
6615;BME280;3343;42.896;23.912;2022-08-01T08:56:46;96288.53;;;36.89;22.91
6615;BME280;3343;42.896;23.912;2022-08-01T08:59:14;96288.56;;;36.50;22.91
6615;BME280;3343;42.896;23.912;2022-08-01T09:01:41;96283.13;;;36.92;22.90
6615;BME280;3343;42.896;23.912;2022-08-01T09:04:10;96288.63;;;36.54;23.18
6615;BME280;3343;42.896;23.912;2022-08-01T09:06:38;96281.97;;;36.93;23.47
6615;BME280;3343;42.896;23.912;2022-08-01T09:09:06;96277.28;;;36.55;22.97
6615;BME280;3343;42.896;23.912;2022-08-01T09:11:35;96269.41;;;36.34;23.48
6615;BME280;3343;42.896;23.912;2022-08-01T09:14:04;96269.88;;;36.01;23.82
6615;BME280;3343;42.896;23.912;2022-08-01T09:16:32;96280.94;;;35.89;23.17
6615;BME280;3343;42.896;23.912;2022-08-01T09:19:12;96265.19;;;36.21;24.28
6615;BME280;3343;42.896;23.912;2022-08-01T09:21:40;96281.47;;;37.11;23.66
6615;BME280;3343;42.896;23.912;2022-08-01T09:24:21;96281.75;;;36.83;23.08
6615;BME280;3343;42.896;23.912;2022-08-01T09:26:48;96278.53;;;36.58;22.88
6615;BME280;3343;42.896;23.912;2022-08-01T09:29:20;96275.41;;;36.40;22.95
6615;BME280;3343;42.896;23.912;2022-08-01T09:31:47;96273.63;;;35.62;23.63
6615;BME280;3343;42.896;23.912;2022-08-01T09:34:16;96254.72;;;35.72;23.22
6615;BME280;3343;42.896;23.912;2022-08-01T09:36:51;96262.88;;;36.58;23.64
6615;BME280;3343;42.896;23.912;2022-08-01T09:39:20;96265.69;;;36.43;23.81
6615;BME280;3343;42.896;23.912;2022-08-01T09:41:48;96274.72;;;36.43;23.84
6615;BME280;3343;42.896;23.912;2022-08-01T09:44:16;96270.53;;;36.49;23.52
6615;BME280;3343;42.896;23.912;2022-08-01T09:46:53;96256.03;;;36.49;22.58
6615;BME280;3343;42.896;23.912;2022-08-01T09:49:29;96249.84;;;37.17;23.05
6615;BME280;3343;42.896;23.912;2022-08-01T09:51:58;96251.28;;;36.11;23.05
6615;BME280;3343;42.896;23.912;2022-08-01T09:54:30;96265.44;;;37.13;23.53
6615;BME280;3343;42.896;23.912;2022-08-01T09:57:09;96249.03;;;37.36;22.35
6615;BME280;3343;42.896;23.912;2022-08-01T09:59:36;96249.63;;;37.48;22.64
6615;BME280;3343;42.896;23.912;2022-08-01T10:02:06;96252.47;;;37.10;22.07
6615;BME280;3343;42.896;23.912;2022-08-01T10:04:35;96258.28;;;37.27;23.01
6615;BME280;3343;42.896;23.912;2022-08-01T10:07:06;96254.09;;;36.91;22.64
6615;BME280;3343;42.896;23.912;2022-08-01T10:09:35;96253.75;;;36.93;23.46
6615;BME280;3343;42.896;23.912;2022-08-01T10:12:03;96246.34;;;37.20;24.02
6615;BME280;3343;42.896;23.912;2022-08-01T10:14:31;96239.38;;;37.45;23.52
6615;BME280;3343;42.896;23.912;2022-08-01T10:16:59;96234.13;;;37.37;23.02
6615;BME280;3343;42.896;23.912;2022-08-01T10:19:28;96227.34;;;36.65;22.68
6615;BME280;3343;42.896;23.912;2022-08-01T10:21:57;96235.59;;;36.65;23.59
6615;BME280;3343;42.896;23.912;2022-08-01T10:24:26;96232.75;;;36.81;23.82
6615;BME280;3343;42.896;23.912;2022-08-01T10:26:57;96245.50;;;37.61;22.65
6615;BME280;3343;42.896;23.912;2022-08-01T10:29:31;96237.50;;;38.32;22.50
6615;BME280;3343;42.896;23.912;2022-08-01T10:32:01;96237.38;;;38.21;21.93
6615;BME280;3343;42.896;23.912;2022-08-01T10:34:29;96239.38;;;37.45;21.87
6615;BME280;3343;42.896;23.912;2022-08-01T10:36:58;96231.84;;;38.18;21.78
6615;BME280;3343;42.896;23.912;2022-08-01T10:39:26;96224.50;;;38.63;21.86
6615;BME280;3343;42.896;23.912;2022-08-01T10:41:55;96228.75;;;38.23;22.30
6615;BME280;3343;42.896;23.912;2022-08-01T10:44:23;96220.78;;;37.61;21.76
6615;BME280;3343;42.896;23.912;2022-08-01T10:46:56;96211.97;;;36.80;22.54
6615;BME280;3343;42.896;23.912;2022-08-01T10:49:28;96216.31;;;37.04;22.96
6615;BME280;3343;42.896;23.912;2022-08-01T10:51:57;96204.47;;;36.77;22.31
6615;BME280;3343;42.896;23.912;2022-08-01T10:54:25;96215.22;;;36.28;23.80
6615;BME280;3343;42.896;23.912;2022-08-01T10:56:53;96216.38;;;36.85;23.68
6615;BME280;3343;42.896;23.912;2022-08-01T10:59:23;96216.56;;;36.95;23.53
6615;BME280;3343;42.896;23.912;2022-08-01T11:01:57;96222.31;;;37.59;22.84
6615;BME280;3343;42.896;23.912;2022-08-01T11:04:41;96223.06;;;37.29;22.76
6615;BME280;3343;42.896;23.912;2022-08-01T11:07:16;96216.25;;;37.23;23.08
6615;BME280;3343;42.896;23.912;2022-08-01T11:09:46;96207.97;;;37.43;22.15
6615;BME280;3343;42.896;23.912;2022-08-01T11:12:15;96200.81;;;36.12;23.07
6615;BME280;3343;42.896;23.912;2022-08-01T11:17:55;96206.09;;;35.66;24.27
6615;BME280;3343;42.896;23.912;2022-08-01T11:20:23;96203.97;;;36.72;23.35
6615;BME280;3343;42.896;23.912;2022-08-01T11:23:19;96203.00;;;37.06;23.34
6615;BME280;3343;42.896;23.912;2022-08-01T11:26:09;96204.41;;;37.19;22.73
6615;BME280;3343;42.896;23.912;2022-08-01T11:28:37;96197.00;;;36.35;23.48
6615;BME280;3343;42.896;23.912;2022-08-01T11:31:30;96194.25;;;36.55;24.34
6615;BME280;3343;42.896;23.912;2022-08-01T11:33:58;96191.41;;;36.71;24.06
6615;BME280;3343;42.896;23.912;2022-08-01T11:36:26;96199.41;;;37.48;22.99
6615;BME280;3343;42.896;23.912;2022-08-01T11:39:14;96200.00;;;38.17;21.93
6615;BME280;3343;42.896;23.912;2022-08-01T11:41:43;96198.13;;;37.68;22.02
6615;BME280;3343;42.896;23.912;2022-08-01T11:44:11;96186.88;;;36.78;22.87
6615;BME280;3343;42.896;23.912;2022-08-01T11:46:49;96194.84;;;37.59;22.79
6615;BME280;3343;42.896;23.912;2022-08-01T11:49:49;96197.88;;;37.50;22.49
6615;BME280;3343;42.896;23.912;2022-08-01T11:52:26;96192.47;;;37.08;23.21
6615;BME280;3343;42.896;23.912;2022-08-01T11:54:56;96187.66;;;37.24;23.86
6615;BME280;3343;42.896;23.912;2022-08-01T11:57:25;96184.25;;;36.85;23.31
6615;BME280;3343;42.896;23.912;2022-08-01T11:59:56;96185.41;;;35.53;24.09
6615;BME280;3343;42.896;23.912;2022-08-01T12:02:25;96186.72;;;35.74;24.92
6615;BME280;3343;42.896;23.912;2022-08-01T12:04:54;96174.50;;;35.88;23.99
6615;BME280;3343;42.896;23.912;2022-08-01T12:07:23;96186.53;;;35.01;25.00
6615;BME280;3343;42.896;23.912;2022-08-01T12:09:59;96179.19;;;36.26;24.74
6615;BME280;3343;42.896;23.912;2022-08-01T12:12:27;96177.25;;;36.46;23.52
6615;BME280;3343;42.896;23.912;2022-08-01T12:14:56;96173.56;;;37.03;23.39
6615;BME280;3343;42.896;23.912;2022-08-01T12:17:33;96171.25;;;37.28;22.96
6615;BME280;3343;42.896;23.912;2022-08-01T12:20:00;96178.75;;;36.85;23.75
6615;BME280;3343;42.896;23.912;2022-08-01T12:22:27;96180.28;;;37.55;23.55
6615;BME280;3343;42.896;23.912;2022-08-01T12:25:04;96165.13;;;36.27;24.14
6615;BME280;3343;42.896;23.912;2022-08-01T12:27:32;96174.72;;;36.18;24.42
6615;BME280;3343;42.896;23.912;2022-08-01T12:29:59;96174.66;;;35.60;24.26
6615;BME280;3343;42.896;23.912;2022-08-01T12:32:28;96173.19;;;35.15;25.14
6615;BME280;3343;42.896;23.912;2022-08-01T12:34:58;96178.56;;;35.27;25.17
6615;BME280;3343;42.896;23.912;2022-08-01T12:37:27;96172.56;;;35.88;24.12
6615;BME280;3343;42.896;23.912;2022-08-01T12:39:54;96178.59;;;36.55;24.13
6615;BME280;3343;42.896;23.912;2022-08-01T12:42:24;96167.78;;;37.31;23.91
6615;BME280;3343;42.896;23.912;2022-08-01T12:44:51;96137.19;;;37.29;23.82
6615;BME280;3343;42.896;23.912;2022-08-01T12:47:21;96165.75;;;37.81;22.95
6615;BME280;3343;42.896;23.912;2022-08-01T12:49:48;96172.78;;;37.78;22.68
6615;BME280;3343;42.896;23.912;2022-08-01T12:52:16;96171.81;;;37.93;22.84
6615;BME280;3343;42.896;23.912;2022-08-01T12:55:04;96168.81;;;36.35;23.91
6615;BME280;3343;42.896;23.912;2022-08-01T12:57:33;96156.19;;;35.06;24.87
6615;BME280;3343;42.896;23.912;2022-08-01T13:00:15;96165.09;;;35.03;25.84
6615;BME280;3343;42.896;23.912;2022-08-01T13:02:44;96172.84;;;35.17;25.47
6615;BME280;3343;42.896;23.912;2022-08-01T13:05:12;96172.69;;;35.09;25.54
6615;BME280;3343;42.896;23.912;2022-08-01T13:07:49;96163.97;;;35.90;24.78
6615;BME280;3343;42.896;23.912;2022-08-01T13:10:25;96155.75;;;36.28;24.70
6615;BME280;3343;42.896;23.912;2022-08-01T13:12:56;96166.44;;;36.33;24.16
6615;BME280;3343;42.896;23.912;2022-08-01T13:15:29;96152.22;;;36.47;24.63
6615;BME280;3343;42.896;23.912;2022-08-01T13:17:58;96162.84;;;36.72;23.94
6615;BME280;3343;42.896;23.912;2022-08-01T13:20:31;96152.94;;;36.86;24.11
6615;BME280;3343;42.896;23.912;2022-08-01T13:23:12;96153.34;;;36.88;23.64
6615;BME280;3343;42.896;23.912;2022-08-01T13:25:49;96144.28;;;36.23;24.38
6615;BME280;3343;42.896;23.912;2022-08-01T13:28:20;96131.88;;;36.48;24.82